Time;durP1;ratioP1;P1;durP2;ratioP2;P2;SDS_P1;SDS_P2;PMS_P1;PMS_P2;Temp;Humidity;BMP_temperature;BMP_pressure;BME280_temperature;BME280_humidity;BME280_pressure;Samples;Min_cycle;Max_cycle;Signal;HPM_P1;HPM_P2
2021/03/26 00:01:33;;;;;;;1999.90;999.90;;;8.40;99.90;;;;;;4967206;29;20187;-83
2021/03/26 00:04:02;;;;;;;1999.90;999.90;;;8.50;99.90;;;;;;4967771;29;20148;-83
2021/03/26 00:06:31;;;;;;;1999.90;999.90;;;8.60;99.90;;;;;;4950496;29;20635;-83
2021/03/26 00:08:58;;;;;;;1999.90;999.90;;;8.50;99.90;;;;;;4950206;29;20168;-84
2021/03/26 00:11:27;;;;;;;1999.90;999.90;;;8.70;99.90;;;;;;4950209;29;20211;-83
2021/03/26 00:13:52;;;;;;;1999.90;999.90;;;8.70;99.90;;;;;;4949850;29;20257;-83
2021/03/26 00:16:20;;;;;;;1999.90;999.90;;;8.70;99.90;;;;;;4950903;29;20240;-83
2021/03/26 00:18:46;;;;;;;1999.90;999.90;;;8.70;99.90;;;;;;4967668;29;20404;-83
2021/03/26 00:21:12;;;;;;;1999.90;999.90;;;8.60;99.90;;;;;;4966927;29;20160;-83
2021/03/26 00:23:37;;;;;;;1999.90;999.90;;;8.70;99.90;;;;;;4967130;29;20583;-83
2021/03/26 00:26:07;;;;;;;1999.90;999.90;;;8.80;99.90;;;;;;4967010;29;20238;-83
2021/03/26 00:28:33;;;;;;;1999.90;999.90;;;8.90;99.90;;;;;;4949610;29;20218;-83
2021/03/26 00:30:58;;;;;;;1999.90;999.90;;;8.80;99.90;;;;;;4966902;29;20164;-83
2021/03/26 00:33:25;;;;;;;1999.90;999.90;;;8.70;99.90;;;;;;4966286;29;20192;-83
2021/03/26 00:35:54;;;;;;;1999.90;999.90;;;8.70;99.90;;;;;;4949262;29;20451;-83
2021/03/26 00:38:22;;;;;;;1999.90;999.90;;;8.60;99.90;;;;;;4966523;29;20575;-83
2021/03/26 00:40:48;;;;;;;1999.90;999.90;;;8.60;99.90;;;;;;4966537;29;20255;-83
2021/03/26 00:43:14;;;;;;;1999.90;999.90;;;8.50;99.90;;;;;;4965477;28;20168;-83
2021/03/26 00:45:40;;;;;;;1999.90;999.90;;;8.40;99.90;;;;;;4966567;29;20171;-83
2021/03/26 00:48:06;;;;;;;1999.90;999.90;;;8.40;99.90;;;;;;4966423;29;20454;-83
2021/03/26 00:50:43;;;;;;;1999.90;999.90;;;8.40;99.90;;;;;;4966610;29;20819;-84
2021/03/26 00:53:16;;;;;;;1999.90;999.90;;;8.30;99.90;;;;;;4949570;29;20535;-83
2021/03/26 00:55:42;;;;;;;1999.90;999.90;;;8.40;99.90;;;;;;4967062;29;20555;-83
2021/03/26 00:58:08;;;;;;;1999.90;999.90;;;8.40;99.90;;;;;;4966881;29;20182;-85
2021/03/26 01:00:37;;;;;;;1999.90;999.90;;;8.40;99.90;;;;;;4965856;29;20444;-83
2021/03/26 01:03:06;;;;;;;1999.90;999.90;;;8.40;99.90;;;;;;4966494;29;20167;-83
2021/03/26 01:05:35;;;;;;;1999.90;999.90;;;8.40;99.90;;;;;;4949348;29;20647;-83
2021/03/26 01:08:02;;;;;;;1999.90;999.90;;;8.40;99.90;;;;;;4966570;29;20172;-83
2021/03/26 01:10:31;;;;;;;1999.90;999.90;;;8.40;99.90;;;;;;4966347;29;20191;-83
2021/03/26 01:12:59;;;;;;;1999.90;999.90;;;8.30;99.90;;;;;;4966218;29;20198;-83
2021/03/26 01:15:27;;;;;;;1999.90;999.90;;;8.30;99.90;;;;;;4966286;29;20524;-83
2021/03/26 01:17:55;;;;;;;1999.90;999.90;;;8.30;99.90;;;;;;4966200;29;20171;-83
2021/03/26 01:20:30;;;;;;;1999.90;999.90;;;8.30;99.90;;;;;;4966778;29;20642;-84
2021/03/26 01:22:56;;;;;;;1999.90;999.90;;;8.30;99.90;;;;;;4966548;29;20194;-83
2021/03/26 01:25:44;;;;;;;1999.90;999.90;;;8.20;99.90;;;;;;4985444;23;20170;-88
2021/03/26 05:25:49;;;;;;;1999.90;999.90;;;6.60;99.90;;;;;;4969944;23;20218;-81
2021/03/26 05:28:22;;;;;;;1999.90;999.90;;;6.50;99.90;;;;;;4996467;28;20190;-81
2021/03/26 05:30:49;;;;;;;1999.90;999.90;;;6.50;99.90;;;;;;4998523;28;20159;-81
2021/03/26 05:33:19;;;;;;;1999.90;999.90;;;6.50;99.90;;;;;;4998907;28;20281;-81
2021/03/26 05:36:12;;;;;;;1999.90;999.90;;;6.50;99.90;;;;;;4998441;28;20185;-81
2021/03/26 05:38:50;;;;;;;1999.90;999.90;;;6.40;99.90;;;;;;4981560;28;20163;-81
2021/03/26 05:41:40;;;;;;;1999.90;999.90;;;6.40;99.90;;;;;;4997697;28;20181;-81
2021/03/26 05:44:23;;;;;;;1999.90;999.90;;;6.50;99.90;;;;;;4981209;28;20217;-81
2021/03/26 05:46:49;;;;;;;1999.90;999.90;;;6.50;99.90;;;;;;4997860;28;20190;-81
2021/03/26 05:49:23;;;;;;;1999.90;999.90;;;6.40;99.90;;;;;;4998675;28;20217;-81
2021/03/26 05:52:28;;;;;;;1999.90;999.90;;;6.40;99.90;;;;;;4998245;28;20186;-81
2021/03/26 05:55:13;;;;;;;1999.90;999.90;;;6.40;99.90;;;;;;4998396;28;20157;-81
2021/03/26 05:57:59;;;;;;;1999.90;999.90;;;6.50;99.90;;;;;;4981021;28;20186;-81
2021/03/26 06:00:52;;;;;;;1999.90;999.90;;;6.60;99.90;;;;;;4998951;28;20157;-81
2021/03/26 06:03:23;;;;;;;1999.90;999.90;;;6.60;99.90;;;;;;4998261;28;20598;-81
2021/03/26 06:06:08;;;;;;;1999.90;999.90;;;6.70;99.90;;;;;;4980883;28;20201;-80
2021/03/26 06:09:23;;;;;;;1999.90;999.90;;;6.60;99.90;;;;;;4997965;28;20154;-81
2021/03/26 06:12:09;;;;;;;1999.90;999.90;;;6.60;99.90;;;;;;4986138;28;20237;-81
2021/03/26 06:15:03;;;;;;;1999.90;999.90;;;6.70;99.90;;;;;;4998049;28;20151;-81
2021/03/26 06:17:56;;;;;;;1999.90;999.90;;;6.70;99.90;;;;;;4998481;28;20242;-81
2021/03/26 06:20:43;;;;;;;1999.90;999.90;;;6.80;99.90;;;;;;4997877;28;20235;-81
2021/03/26 06:23:36;;;;;;;1999.90;999.90;;;6.80;99.90;;;;;;4997840;28;20159;-81
2021/03/26 06:26:27;;;;;;;1999.90;999.90;;;6.90;99.90;;;;;;4997841;28;20191;-81
2021/03/26 06:29:02;;;;;;;1999.90;999.90;;;6.90;99.90;;;;;;4998069;28;20190;-81
2021/03/26 06:31:54;;;;;;;1999.90;999.90;;;6.90;99.90;;;;;;4997466;28;20529;-81
2021/03/26 06:34:47;;;;;;;1999.90;999.90;;;7.00;99.90;;;;;;4997428;28;20166;-81
2021/03/26 06:37:31;;;;;;;1999.90;999.90;;;7.00;99.90;;;;;;4980114;28;20526;-81
2021/03/26 06:40:18;;;;;;;1999.90;999.90;;;7.00;99.90;;;;;;4997371;28;20222;-81
2021/03/26 06:42:44;;;;;;;1999.90;999.90;;;7.10;99.90;;;;;;4983379;28;20217;-81
2021/03/26 06:45:49;;;;;;;1999.90;999.90;;;7.20;99.90;;;;;;4984462;28;20167;-81
2021/03/26 06:48:43;;;;;;;1999.90;999.90;;;7.30;99.90;;;;;;4945640;29;20586;-80
2021/03/26 06:51:28;;;;;;;1999.90;999.90;;;7.40;99.90;;;;;;4943935;29;20247;-81
2021/03/26 06:54:01;;;;;;;1999.90;999.90;;;7.50;99.90;;;;;;4992783;28;20190;-81
2021/03/26 06:56:57;;;;;;;1999.90;999.90;;;7.70;99.90;;;;;;4983831;28;20557;-81
2021/03/26 06:59:54;;;;;;;1999.90;999.90;;;7.70;99.90;;;;;;5001512;28;20618;-81
2021/03/26 07:02:57;;;;;;;1999.90;999.90;;;7.80;99.90;;;;;;4983208;28;20162;-81
2021/03/26 07:05:34;;;;;;;1999.90;999.90;;;7.90;99.90;;;;;;4983132;28;20224;-81
2021/03/26 07:08:19;;;;;;;1999.90;999.90;;;8.10;99.90;;;;;;5000769;28;20173;-81
2021/03/26 07:11:07;;;;;;;1999.90;999.90;;;8.30;99.90;;;;;;5000960;28;20174;-80
2021/03/26 07:14:11;;;;;;;1999.90;999.90;;;8.50;99.90;;;;;;5000794;28;20171;-80
2021/03/26 07:17:00;;;;;;;1999.90;999.90;;;8.60;99.90;;;;;;4982779;28;20194;-81
2021/03/26 07:19:44;;;;;;;1999.90;999.90;;;8.70;99.90;;;;;;5001258;28;20238;-80
2021/03/26 07:22:31;;;;;;;1999.90;999.90;;;8.80;99.90;;;;;;5000556;28;20174;-81
2021/03/26 07:25:15;;;;;;;1999.90;999.90;;;8.90;99.90;;;;;;4982902;28;20159;-81
2021/03/26 07:27:55;;;;;;;1999.90;999.90;;;9.00;99.90;;;;;;5000513;28;20253;-81
2021/03/26 07:30:58;;;;;;;1999.90;999.90;;;9.10;99.90;;;;;;5000414;28;20497;-81
2021/03/26 07:33:28;;;;;;;1999.90;999.90;;;9.20;99.90;;;;;;5000018;28;20197;-80
2021/03/26 07:36:20;;;;;;;1999.90;999.90;;;9.20;99.90;;;;;;5000041;28;20186;-81
2021/03/26 07:39:02;;;;;;;1999.90;999.90;;;9.20;99.90;;;;;;5000320;28;20237;-81
2021/03/26 07:42:06;;;;;;;1999.90;999.90;;;9.30;99.90;;;;;;4982715;28;20163;-81
2021/03/26 07:45:23;;;;;;;1999.90;999.90;;;9.40;99.90;;;;;;5000067;28;20166;-81
2021/03/26 07:48:03;;;;;;;1999.90;999.90;;;9.40;99.90;;;;;;4977670;28;20237;-81
2021/03/26 07:51:05;;;;;;;1999.90;999.90;;;9.50;99.90;;;;;;5000808;28;20611;-81
2021/03/26 07:53:50;;;;;;;1999.90;999.90;;;9.60;99.90;;;;;;4992427;28;20224;-81
2021/03/26 07:56:28;;;;;;;1999.90;999.90;;;9.70;99.90;;;;;;4982366;28;20194;-81
2021/03/26 07:59:18;;;;;;;1999.90;999.90;;;9.80;99.90;;;;;;4999569;28;20143;-81
2021/03/26 08:01:56;;;;;;;1999.90;999.90;;;9.90;99.90;;;;;;4999048;28;20155;-80
2021/03/26 08:04:43;;;;;;;1999.90;999.90;;;9.90;99.90;;;;;;4999457;28;20151;-81
2021/03/26 08:07:18;;;;;;;1999.90;999.90;;;10.00;99.90;;;;;;4998752;28;20213;-81
2021/03/26 08:10:07;;;;;;;1999.90;999.90;;;10.10;99.90;;;;;;4999122;28;20169;-81
2021/03/26 08:12:51;;;;;;;1999.90;999.90;;;10.20;99.90;;;;;;4980299;28;20345;-81
2021/03/26 08:15:45;;;;;;;1999.90;999.90;;;10.20;99.90;;;;;;4981097;28;20154;-81
2021/03/26 08:18:26;;;;;;;1999.90;999.90;;;10.30;99.90;;;;;;4980964;28;20163;-81
2021/03/26 08:21:00;;;;;;;1999.90;999.90;;;10.40;99.90;;;;;;4981196;28;20185;-81
2021/03/26 08:23:34;;;;;;;1999.90;999.90;;;10.50;99.90;;;;;;4998410;28;20170;-81
2021/03/26 08:26:18;;;;;;;1999.90;999.90;;;10.60;99.90;;;;;;4999015;28;20676;-81
2021/03/26 08:29:17;;;;;;;1999.90;999.90;;;10.60;99.90;;;;;;4980838;28;20175;-80
2021/03/26 08:32:20;;;;;;;1999.90;999.90;;;10.70;99.90;;;;;;4998314;28;20510;-81
2021/03/26 08:34:57;;;;;;;1999.90;999.90;;;10.70;99.90;;;;;;4997901;28;20162;-81
2021/03/26 08:37:54;;;;;;;1999.90;999.90;;;10.80;99.90;;;;;;4998287;28;20531;-81
2021/03/26 08:40:25;;;;;;;1999.90;999.90;;;10.90;99.90;;;;;;4980871;28;20154;-81
2021/03/26 08:42:53;;;;;;;1999.90;999.90;;;10.90;99.90;;;;;;4998363;28;20155;-80
2021/03/26 08:45:25;;;;;;;1999.90;999.90;;;11.00;99.90;;;;;;4998300;28;20203;-80
2021/03/26 08:48:06;;;;;;;1999.90;999.90;;;11.10;99.90;;;;;;4998297;28;20273;-80
2021/03/26 08:50:44;;;;;;;1999.90;999.90;;;11.20;99.90;;;;;;4980604;28;20169;-80
2021/03/26 08:53:31;;;;;;;1999.90;999.90;;;11.20;99.90;;;;;;4997812;28;20178;-80
2021/03/26 08:56:20;;;;;;;1999.90;999.90;;;11.20;99.90;;;;;;4980794;28;20186;-81
2021/03/26 08:59:23;;;;;;;1999.90;999.90;;;11.30;99.90;;;;;;4998456;28;20238;-80
2021/03/26 09:01:55;;;;;;;1999.90;999.90;;;11.40;99.90;;;;;;5050420;23;20254;-81
2021/03/26 09:04:51;;;;;;;1999.90;999.90;;;11.40;99.90;;;;;;4978062;28;20205;-81
2021/03/26 09:07:23;;;;;;;1999.90;999.90;;;11.50;99.90;;;;;;4961073;28;20558;-81
2021/03/26 09:09:58;;;;;;;1999.90;999.90;;;11.60;99.90;;;;;;4960597;28;20164;-81
2021/03/26 09:12:38;;;;;;;1999.90;999.90;;;11.60;99.90;;;;;;4978142;28;20581;-81
2021/03/26 09:15:32;;;;;;;1999.90;999.90;;;11.70;99.90;;;;;;4977981;28;20151;-81
2021/03/26 09:18:18;;;;;;;1999.90;999.90;;;11.80;99.90;;;;;;4978042;28;20152;-81
2021/03/26 09:20:50;;;;;;;1999.90;999.90;;;11.70;99.90;;;;;;4977817;28;20155;-81
2021/03/26 09:23:37;;;;;;;1999.90;999.90;;;11.80;99.90;;;;;;4960849;28;20179;-81
2021/03/26 09:26:32;;;;;;;1999.90;999.90;;;11.90;99.90;;;;;;4960570;28;20242;-81
2021/03/26 09:29:04;;;;;;;1999.90;999.90;;;12.10;99.90;;;;;;4960856;28;20567;-81
2021/03/26 09:31:42;;;;;;;1999.90;999.90;;;12.10;99.90;;;;;;4978755;28;20235;-81
2021/03/26 09:34:21;;;;;;;1999.90;999.90;;;12.30;99.90;;;;;;4979116;28;20202;-81
2021/03/26 09:37:17;;;;;;;1999.90;999.90;;;12.40;99.90;;;;;;4960888;28;20187;-80
2021/03/26 09:39:48;;;;;;;1999.90;999.90;;;12.40;99.90;;;;;;4951862;28;20175;-81
2021/03/26 09:42:41;;;;;;;1999.90;999.90;;;12.50;99.90;;;;;;4977394;28;20179;-80
2021/03/26 09:45:20;;;;;;;1999.90;999.90;;;12.60;99.90;;;;;;4962800;28;20194;-81
2021/03/26 09:48:30;;;;;;;1999.90;999.90;;;12.80;99.90;;;;;;4977410;28;20179;-81
2021/03/26 09:51:44;;;;;;;1999.90;999.90;;;13.00;99.90;;;;;;4960899;28;20156;-80
2021/03/26 09:54:09;;;;;;;1999.90;999.90;;;13.10;99.90;;;;;;4954733;28;20681;-81
2021/03/26 09:56:44;;;;;;;1999.90;999.90;;;13.20;99.90;;;;;;4977060;28;20187;-80
2021/03/26 09:59:28;;;;;;;1999.90;999.90;;;13.50;99.90;;;;;;4977576;28;20155;-81
2021/03/26 10:01:58;;;;;;;1999.90;999.90;;;13.70;99.90;;;;;;4977496;28;20203;-80
2021/03/26 10:04:36;;;;;;;1999.90;999.90;;;13.90;99.90;;;;;;4960040;28;20163;-81
2021/03/26 10:07:26;;;;;;;1999.90;999.90;;;14.00;99.90;;;;;;4977723;28;20191;-80
2021/03/26 10:12:59;;;;;;;1999.90;999.90;;;14.30;99.60;;;;;;4977010;28;20174;-80
2021/03/26 10:15:34;;;;;;;1999.90;999.90;;;14.40;97.60;;;;;;4976796;28;20615;-81
2021/03/26 10:18:13;;;;;;;1999.90;999.90;;;14.60;98.00;;;;;;4980229;28;20174;-80
2021/03/26 10:20:52;;;;;;;1999.90;999.90;;;14.90;95.00;;;;;;4981284;28;20402;-80
2021/03/26 10:23:43;;;;;;;1999.90;999.90;;;15.00;92.70;;;;;;4981081;28;20700;-80
2021/03/26 10:26:35;;;;;;;1999.90;999.90;;;15.20;83.60;;;;;;4981381;28;20414;-81
2021/03/26 10:29:25;;;;;;;1999.90;999.90;;;15.40;92.60;;;;;;4964307;28;20430;-80
2021/03/26 10:32:03;;;;;;;1999.90;999.90;;;15.50;85.50;;;;;;4980879;28;20489;-80
2021/03/26 10:34:37;;;;;;;1999.90;999.90;;;15.50;57.80;;;;;;4964891;28;20905;-80
2021/03/26 10:37:26;;;;;;;1999.90;999.90;;;15.20;41.50;;;;;;4980788;28;20410;-81
2021/03/26 10:39:58;;;;;;;1999.90;999.90;;;15.30;53.00;;;;;;4980833;28;20383;-79
2021/03/26 10:43:01;;;;;;;1999.90;999.90;;;15.30;56.50;;;;;;4980994;28;21000;-80
2021/03/26 10:45:39;;;;;;;1999.90;999.90;;;15.40;53.50;;;;;;4963837;28;20832;-78
2021/03/26 10:48:11;;;;;;;1999.90;999.90;;;15.60;56.10;;;;;;4980944;28;20379;-80
2021/03/26 10:51:11;;;;;;;1999.90;999.90;;;15.50;39.20;;;;;;4981241;28;20393;-80
2021/03/26 10:53:41;;;;;;;1999.90;999.90;;;15.50;38.20;;;;;;4980084;28;20453;-79
2021/03/26 10:56:31;;;;;;;1999.90;999.90;;;15.80;49.00;;;;;;4980037;28;20454;-80
2021/03/26 10:59:06;;;;;;;1999.90;999.90;;;16.00;40.20;;;;;;4979224;28;20417;-79
2021/03/26 11:01:42;;;;;;;1999.90;999.90;;;16.10;37.00;;;;;;4980313;28;20422;-79
2021/03/26 11:04:16;;;;;;;1999.90;999.90;;;16.20;37.90;;;;;;4980624;28;20754;-80
2021/03/26 11:06:46;;;;;;;1999.90;999.90;;;16.20;39.40;;;;;;4980314;28;20502;-79
2021/03/26 11:09:19;;;;;;;1999.90;999.90;;;16.30;38.10;;;;;;4962715;28;20402;-79
2021/03/26 11:12:01;;;;;;;1999.90;999.90;;;16.30;27.50;;;;;;4962768;28;20989;-80
2021/03/26 11:14:48;;;;;;;1999.90;999.90;;;16.40;28.00;;;;;;4980292;28;20383;-79
2021/03/26 11:17:31;;;;;;;1999.90;999.90;;;16.50;35.70;;;;;;4962931;28;20445;-79
2021/03/26 11:20:22;;;;;;;1999.90;999.90;;;16.50;29.40;;;;;;4980487;28;20438;-80
2021/03/26 11:23:27;;;;;;;1999.90;999.90;;;16.60;29.10;;;;;;4979497;28;20478;-79
2021/03/26 11:26:04;;;;;;;1999.90;999.90;;;16.60;25.30;;;;;;4957400;28;20435;-80
2021/03/26 11:28:36;;;;;;;1999.90;999.90;;;16.50;26.50;;;;;;4962092;28;20399;-80
2021/03/26 11:31:22;;;;;;;1999.90;999.90;;;16.30;22.30;;;;;;4980022;28;20389;-80
2021/03/26 11:33:48;;;;;;;1999.90;999.90;;;16.10;32.40;;;;;;4962773;28;20974;-80
2021/03/26 11:36:40;;;;;;;1999.90;999.90;;;16.40;37.90;;;;;;4979700;28;20470;-79
2021/03/26 11:39:12;;;;;;;1999.90;999.90;;;16.70;26.90;;;;;;4979922;28;20183;-80
2021/03/26 11:41:48;;;;;;;1999.90;999.90;;;16.90;25.30;;;;;;4979563;28;20417;-80
2021/03/26 11:44:16;;;;;;;1999.90;999.90;;;17.00;22.00;;;;;;4962368;28;20416;-80
2021/03/26 11:46:50;;;;;;;1999.90;999.90;;;16.90;20.00;;;;;;4979622;28;20949;-80
2021/03/26 11:49:33;;;;;;;1999.90;999.90;;;17.30;26.80;;;;;;4979281;28;20439;-80
2021/03/26 11:52:10;;;;;;;1999.90;999.90;;;17.60;23.70;;;;;;4962324;28;20408;-80
2021/03/26 11:54:54;;;;;;;1999.90;999.90;;;16.90;16.70;;;;;;4962893;28;20468;-79
2021/03/26 11:57:26;;;;;;;1999.90;999.90;;;16.30;21.10;;;;;;4979135;28;20511;-80
2021/03/26 12:00:09;;;;;;;1999.90;999.90;;;16.20;27.20;;;;;;4979888;28;20459;-80
2021/03/26 12:03:02;;;;;;;1999.90;999.90;;;15.90;30.70;;;;;;4979259;28;20442;-79
2021/03/26 12:05:46;;;;;;;1999.90;999.90;;;15.80;38.40;;;;;;4979453;28;20388;-80
2021/03/26 12:08:31;;;;;;;1999.90;999.90;;;16.10;40.30;;;;;;4979021;28;20388;-78
2021/03/26 12:11:12;;;;;;;1999.90;999.90;;;15.80;34.30;;;;;;4979779;28;20398;-79
2021/03/26 12:14:33;;;;;;;1999.90;999.90;;;16.20;43.10;;;;;;4980181;28;20392;-79
2021/03/26 12:17:01;;;;;;;1999.90;999.90;;;16.80;34.10;;;;;;4957527;29;20807;-79
2021/03/26 12:19:36;;;;;;;1999.90;999.90;;;17.00;23.40;;;;;;4974452;28;20427;-80
2021/03/26 12:22:16;;;;;;;1999.90;999.90;;;16.70;22.70;;;;;;4979311;28;20438;-80
2021/03/26 12:24:47;;;;;;;1999.90;999.90;;;17.00;26.50;;;;;;4961845;28;20408;-79
2021/03/26 12:27:26;;;;;;;1999.90;999.90;;;17.50;27.00;;;;;;4979026;28;20432;-79
2021/03/26 12:30:16;;;;;;;1999.90;999.90;;;17.80;22.10;;;;;;4978784;28;20398;-80
2021/03/26 12:33:00;;;;;;;1999.90;999.90;;;17.50;15.20;;;;;;4961133;28;20832;-80
2021/03/26 12:35:51;;;;;;;1999.90;999.90;;;17.40;18.60;;;;;;4978039;28;20436;-80
2021/03/26 12:38:19;;;;;;;1999.90;999.90;;;16.90;16.80;;;;;;4960341;28;20552;-79
2021/03/26 12:41:11;;;;;;;1999.90;999.90;;;16.80;14.50;;;;;;4977592;28;20417;-79
2021/03/26 12:43:52;;;;;;;1999.90;999.90;;;16.80;19.70;;;;;;4978017;28;20481;-80
2021/03/26 12:46:40;;;;;;;1999.90;999.90;;;17.30;19.10;;;;;;4978285;28;20432;-79
2021/03/26 12:49:12;;;;;;;1999.90;999.90;;;17.20;11.60;;;;;;4978208;28;20512;-79
2021/03/26 12:51:54;;;;;;;1999.90;999.90;;;17.50;13.60;;;;;;4959843;28;20946;-80
2021/03/26 12:54:44;;;;;;;1999.90;999.90;;;17.80;10.10;;;;;;4977365;28;20393;-80
2021/03/26 12:57:28;;;;;;;1999.90;999.90;;;18.10;7.40;;;;;;4978529;28;20806;-80
2021/03/26 13:00:07;;;;;;;1999.90;999.90;;;17.80;10.00;;;;;;4960543;28;20411;-80
2021/03/26 13:02:41;;;;;;;1999.90;999.90;;;17.60;6.90;;;;;;4960528;28;20494;-80
2021/03/26 13:05:25;;;;;;;1999.90;999.90;;;17.00;6.40;;;;;;4978513;28;20417;-80
2021/03/26 13:07:53;;;;;;;1999.90;999.90;;;16.70;5.60;;;;;;4960175;28;20527;-79
2021/03/26 13:10:37;;;;;;;1999.90;999.90;;;16.60;6.60;;;;;;4960653;28;20424;-79
2021/03/26 13:13:30;;;;;;;1999.90;999.90;;;16.60;5.90;;;;;;4976508;28;20826;-79
2021/03/26 13:16:39;;;;;;;1999.90;999.90;;;16.70;6.40;;;;;;4976086;28;20931;-78
2021/03/26 13:19:13;;;;;;;1999.90;999.90;;;16.60;4.70;;;;;;4959120;28;20438;-79
2021/03/26 13:22:00;;;;;;;1999.90;999.90;;;16.80;6.00;;;;;;4959183;28;20421;-80
2021/03/26 13:24:28;;;;;;;1999.90;999.90;;;16.90;7.80;;;;;;4976395;28;20765;-80
2021/03/26 13:27:19;;;;;;;1999.90;999.90;;;17.10;5.00;;;;;;4959216;28;20433;-79
2021/03/26 13:30:04;;;;;;;1999.90;999.90;;;17.20;5.10;;;;;;4958789;28;20412;-76
2021/03/26 13:32:44;;;;;;;1999.90;999.90;;;17.30;5.00;;;;;;4958068;28;20421;-79
2021/03/26 13:35:21;;;;;;;1999.90;999.90;;;17.50;4.60;;;;;;4976324;28;20385;-80
2021/03/26 13:37:58;;;;;;;1999.90;999.90;;;17.60;5.20;;;;;;4977192;28;20416;-79
2021/03/26 13:40:29;;;;;;;1999.90;999.90;;;17.10;2.70;;;;;;4978304;28;20475;-80
2021/03/26 13:43:12;;;;;;;1999.90;999.90;;;17.40;4.30;;;;;;4977395;28;21056;-80
2021/03/26 13:45:53;;;;;;;1999.90;999.90;;;17.40;1.00;;;;;;4978110;28;20876;-79
2021/03/26 13:48:22;;;;;;;1999.90;999.90;;;16.90;2.80;;;;;;4977984;28;20388;-80
2021/03/26 13:51:17;;;;;;;1999.90;999.90;;;17.10;2.00;;;;;;4959855;28;20415;-80
2021/03/26 13:53:56;;;;;;;1999.90;999.90;;;17.40;2.20;;;;;;4961273;28;20425;-80
2021/03/26 13:56:25;;;;;;;1999.90;999.90;;;17.20;1.00;;;;;;4978064;28;20455;-80
2021/03/26 13:59:15;;;;;;;1999.90;999.90;;;17.00;1.30;;;;;;4978201;28;20561;-79
2021/03/26 14:01:50;;;;;;;1999.90;999.90;;;16.90;1.40;;;;;;4977428;28;20880;-79
2021/03/26 14:04:25;;;;;;;1999.90;999.90;;;17.10;1.90;;;;;;4977777;28;20416;-79
2021/03/26 14:07:09;;;;;;;1999.90;999.90;;;17.10;1.00;;;;;;4977340;28;20423;-80
2021/03/26 14:09:44;;;;;;;1999.90;999.90;;;16.80;1.30;;;;;;4977797;28;20392;-80
2021/03/26 14:12:30;;;;;;;1999.90;999.90;;;17.00;1.00;;;;;;4960142;28;20418;-80
2021/03/26 14:14:58;;;;;;;1999.90;999.90;;;16.90;2.00;;;;;;4962993;28;20420;-80
2021/03/26 14:17:40;;;;;;;1999.90;999.90;;;16.60;1.70;;;;;;4959731;28;20439;-80
2021/03/26 14:20:06;;;;;;;1999.90;999.90;;;16.30;1.70;;;;;;4960146;28;20783;-80
2021/03/26 14:22:36;;;;;;;1999.90;999.90;;;16.40;4.10;;;;;;4977998;28;20442;-80
2021/03/26 14:25:36;;;;;;;1999.90;999.90;;;16.70;5.00;;;;;;4977993;28;20154;-80
2021/03/26 14:28:05;;;;;;;1999.90;999.90;;;17.10;3.50;;;;;;4978285;28;20396;-80
2021/03/26 14:30:55;;;;;;;1999.90;999.90;;;17.40;1.00;;;;;;4978047;28;20491;-80
2021/03/26 14:33:54;;;;;;;1999.90;999.90;;;17.30;1.00;;;;;;4977430;28;20393;-80
2021/03/26 14:36:25;;;;;;;1999.90;999.90;;;17.20;1.00;;;;;;4960566;28;20438;-80
2021/03/26 14:38:51;;;;;;;1999.90;999.90;;;16.90;1.00;;;;;;4977283;28;20427;-80
2021/03/26 14:41:36;;;;;;;1999.90;999.90;;;16.80;1.00;;;;;;4977226;28;20469;-79
2021/03/26 14:44:14;;;;;;;1999.90;999.90;;;16.60;1.00;;;;;;4977581;28;20258;-80
2021/03/26 14:46:48;;;;;;;1999.90;999.90;;;16.80;1.00;;;;;;4960035;28;20475;-80
2021/03/26 14:49:20;;;;;;;1999.90;999.90;;;17.00;1.00;;;;;;4959854;28;20498;-80
2021/03/26 14:51:59;;;;;;;1999.90;999.90;;;16.80;1.00;;;;;;4977609;28;20490;-80
2021/03/26 14:54:33;;;;;;;1999.90;999.90;;;16.70;1.00;;;;;;4959875;28;20894;-80
2021/03/26 14:57:26;;;;;;;1999.90;999.90;;;16.80;1.00;;;;;;4977119;28;20439;-80
2021/03/26 15:03:12;;;;;;;1999.90;999.90;;;16.80;1.00;;;;;;5027263;23;20488;-88
2021/03/26 15:06:15;;;;;;;1999.90;999.90;;;16.80;1.00;;;;;;4960325;28;20515;-88
2021/03/26 15:09:26;;;;;;;1999.90;999.90;;;16.90;1.00;;;;;;4961089;28;20404;-88
2021/03/26 15:12:31;;;;;;;1999.90;999.90;;;17.10;1.00;;;;;;4936579;29;20907;-88
2021/03/26 15:16:04;;;;;;;1999.90;999.90;;;17.30;1.00;;;;;;4920556;29;20489;-88
2021/03/26 15:18:55;;;;;;;1999.90;999.90;;;17.20;1.00;;;;;;4929735;29;20951;-88
2021/03/26 15:22:24;;;;;;;1999.90;999.90;;;17.10;1.00;;;;;;4921531;29;20550;-88
2021/03/26 15:25:44;;;;;;;1999.90;999.90;;;17.30;1.00;;;;;;4920203;29;20778;-88
2021/03/26 15:32:04;;;;;;;1999.90;999.90;;;16.70;1.00;;;;;;4937115;29;20449;-88
2021/03/26 15:34:54;;;;;;;1999.90;999.90;;;16.30;1.00;;;;;;4937178;29;20999;-88
2021/03/26 15:55:00;;;;;;;1999.90;999.90;;;16.30;1.00;;;;;;4842555;29;20485;-88
2021/03/26 16:01:44;;;;;;;1999.90;999.90;;;16.70;1.00;;;;;;4909611;23;20498;-81
2021/03/26 16:04:24;;;;;;;1999.90;999.90;;;16.80;1.00;;;;;;4981966;28;20446;-82
2021/03/26 16:07:07;;;;;;;1999.90;999.90;;;16.80;1.00;;;;;;4982353;28;20426;-82
2021/03/26 16:09:55;;;;;;;1999.90;999.90;;;16.80;1.00;;;;;;4982701;28;20399;-82
2021/03/26 16:13:06;;;;;;;1999.90;999.90;;;16.90;1.00;;;;;;4999737;28;20458;-82
2021/03/26 16:15:46;;;;;;;1999.90;999.90;;;16.80;1.00;;;;;;4982652;28;20419;-82
2021/03/26 16:18:34;;;;;;;1999.90;999.90;;;16.70;1.00;;;;;;5000302;28;20486;-82
2021/03/26 16:21:24;;;;;;;1999.90;999.90;;;16.80;1.00;;;;;;4999855;28;20388;-82
2021/03/26 16:23:55;;;;;;;1999.90;999.90;;;16.70;1.00;;;;;;4999967;28;20389;-82
2021/03/26 16:26:39;;;;;;;1999.90;999.90;;;16.80;1.00;;;;;;4999857;28;20419;-82
2021/03/26 16:29:31;;;;;;;1999.90;999.90;;;16.90;1.00;;;;;;4999996;28;20468;-82
2021/03/26 16:32:12;;;;;;;1999.90;999.90;;;17.10;1.00;;;;;;4982067;28;20421;-82
2021/03/26 16:35:05;;;;;;;1999.90;999.90;;;17.20;1.00;;;;;;5000678;28;20395;-82
2021/03/26 16:37:38;;;;;;;1999.90;999.90;;;16.70;1.00;;;;;;4982849;28;20435;-82
2021/03/26 16:40:22;;;;;;;1999.90;999.90;;;16.80;1.00;;;;;;5000454;28;20439;-82
2021/03/26 16:42:59;;;;;;;1999.90;999.90;;;16.80;1.00;;;;;;5002120;28;20475;-82
2021/03/26 16:46:03;;;;;;;1999.90;999.90;;;16.50;1.00;;;;;;4984184;28;21031;-82
2021/03/26 16:49:00;;;;;;;1999.90;999.90;;;16.40;1.00;;;;;;4997680;28;20407;-83
2021/03/26 16:51:47;;;;;;;1999.90;999.90;;;16.20;1.00;;;;;;5000736;28;20384;-82
2021/03/26 16:54:31;;;;;;;1999.90;999.90;;;16.00;1.00;;;;;;4982596;28;20434;-82
2021/03/26 16:57:16;;;;;;;1999.90;999.90;;;15.90;1.00;;;;;;4982842;28;20421;-82
2021/03/26 17:00:03;;;;;;;1999.90;999.90;;;15.80;1.00;;;;;;5000789;28;20388;-82
2021/03/26 17:02:56;;;;;;;1999.90;999.90;;;15.70;1.00;;;;;;4982799;28;20427;-82
2021/03/26 17:05:49;;;;;;;1999.90;999.90;;;15.50;1.00;;;;;;5000313;28;20419;-82
2021/03/26 17:08:34;;;;;;;1999.90;999.90;;;15.40;1.00;;;;;;4999970;28;20385;-82
2021/03/26 17:11:26;;;;;;;1999.90;999.90;;;15.10;1.00;;;;;;5000381;28;20401;-82
2021/03/26 17:14:21;;;;;;;1999.90;999.90;;;15.00;1.00;;;;;;4983532;28;20972;-82
2021/03/26 17:17:15;;;;;;;1999.90;999.90;;;15.00;1.00;;;;;;4982870;28;20442;-82
2021/03/26 17:20:00;;;;;;;1999.90;999.90;;;15.00;1.00;;;;;;4999895;28;20432;-82
2021/03/26 17:22:35;;;;;;;1999.90;999.90;;;15.10;1.10;;;;;;5000879;28;20380;-82
2021/03/26 17:25:19;;;;;;;1999.90;999.90;;;15.00;1.70;;;;;;5000379;28;20475;-81
2021/03/26 17:28:32;;;;;;;1999.90;999.90;;;15.00;2.30;;;;;;4983178;28;20967;-81
2021/03/26 17:31:38;;;;;;;1999.90;999.90;;;14.70;3.10;;;;;;4982670;28;20394;-81
2021/03/26 17:34:40;;;;;;;1999.90;999.90;;;14.70;4.40;;;;;;5000213;28;20440;-81
2021/03/26 17:37:17;;;;;;;1999.90;999.90;;;14.70;4.20;;;;;;5000100;28;20425;-81
2021/03/26 17:40:20;;;;;;;1999.90;999.90;;;14.50;5.10;;;;;;4999865;28;20776;-81
2021/03/26 17:43:04;;;;;;;1999.90;999.90;;;14.50;6.00;;;;;;4999472;28;20405;-81
2021/03/26 17:45:36;;;;;;;1999.90;999.90;;;14.60;6.30;;;;;;4999811;28;20381;-81
2021/03/26 17:48:19;;;;;;;1999.90;999.90;;;14.50;6.60;;;;;;4982012;28;20409;-81
2021/03/26 17:50:59;;;;;;;1999.90;999.90;;;14.40;6.40;;;;;;4982242;28;20742;-82